createdAt,value
2022-10-11T00:01:55.864Z,72.89
2022-10-11T00:04:22.625Z,72.32
2022-10-11T00:06:49.440Z,72.82
2022-10-11T00:09:16.272Z,71.35
2022-10-11T00:11:43.402Z,71.87
2022-10-11T00:14:10.317Z,71.37
2022-10-11T00:16:40.904Z,70.83
2022-10-11T00:19:07.835Z,71.02
2022-10-11T00:21:34.708Z,70.47
2022-10-11T00:24:01.457Z,70.31
2022-10-11T00:26:28.194Z,70.44
2022-10-11T00:28:55.272Z,69.37
2022-10-11T00:31:22.416Z,69.39
2022-10-11T00:33:49.218Z,71.04
2022-10-11T00:36:17.411Z,70.77
2022-10-11T00:38:45.032Z,71.36
2022-10-11T00:41:13.202Z,72.25
2022-10-11T00:43:40.083Z,71.10
2022-10-11T00:46:18.981Z,72.31
2022-10-11T00:48:58.181Z,72.10
2022-10-11T00:51:51.682Z,71.71
2022-10-11T00:54:21.697Z,72.64
2022-10-11T00:56:53.245Z,72.50
2022-10-11T00:59:24.586Z,71.15
2022-10-11T01:01:52.130Z,71.54
2022-10-11T01:04:19.085Z,71.61
2022-10-11T01:06:46.304Z,71.18
2022-10-11T01:09:13.867Z,70.26
2022-10-11T01:11:42.755Z,70.53
2022-10-11T01:14:25.690Z,70.52
2022-10-11T01:16:58.445Z,70.41
2022-10-11T01:19:53.719Z,70.45
2022-10-11T01:22:20.470Z,69.42
2022-10-11T01:25:00.370Z,69.90
2022-10-11T01:27:53.504Z,70.53
2022-10-11T01:30:24.568Z,69.69
2022-10-11T01:32:56.038Z,69.02
2022-10-11T01:35:38.264Z,68.35
2022-10-11T01:38:09.006Z,69.52
2022-10-11T01:40:43.030Z,69.56
2022-10-11T01:43:10.272Z,69.30
2022-10-11T01:45:37.394Z,68.83
2022-10-11T01:48:07.546Z,68.64
2022-10-11T01:50:52.205Z,69.67
2022-10-11T01:53:31.014Z,69.24
2022-10-11T01:56:11.294Z,70.23
2022-10-11T01:58:43.717Z,70.76
2022-10-11T02:01:42.717Z,70.85
2022-10-11T02:04:45.430Z,70.53
2022-10-11T02:07:23.705Z,70.72
2022-10-11T02:10:00.492Z,71.06
2022-10-11T02:12:40.245Z,70.74
2022-10-11T02:15:09.887Z,71.61
2022-10-11T02:17:40.964Z,71.53
2022-10-11T02:20:09.557Z,71.87
2022-10-11T02:22:37.936Z,71.09
2022-10-11T02:25:09.189Z,71.90
2022-10-11T02:27:38.760Z,71.41
2022-10-11T02:30:07.669Z,71.06
2022-10-11T02:32:36.686Z,71.27
2022-10-11T02:35:04.260Z,72.02
2022-10-11T02:37:35.750Z,72.43
2022-10-11T02:40:25.315Z,73.15
2022-10-11T02:43:03.923Z,73.61
2022-10-11T02:45:33.169Z,73.51
2022-10-11T02:48:00.161Z,73.80
2022-10-11T02:50:27.298Z,73.65
2022-10-11T02:52:54.019Z,74.36
2022-10-11T02:55:20.989Z,73.77
2022-10-11T02:57:47.823Z,73.73
2022-10-11T03:00:14.898Z,74.43
2022-10-11T03:02:41.607Z,73.84
2022-10-11T03:05:09.286Z,74.34
2022-10-11T03:07:36.013Z,75.64
2022-10-11T03:10:03.140Z,74.51
2022-10-11T03:12:29.971Z,73.29
2022-10-11T03:14:56.739Z,73.75
2022-10-11T03:17:36.200Z,74.49
2022-10-11T03:20:04.791Z,74.36
2022-10-11T03:22:32.075Z,74.63
2022-10-11T03:25:03.669Z,74.66
2022-10-11T03:27:32.064Z,74.32
2022-10-11T03:29:58.920Z,74.45
2022-10-11T03:32:25.670Z,75.38
2022-10-11T03:34:53.206Z,75.80
2022-10-11T03:37:20.217Z,76.11
2022-10-11T03:39:46.997Z,76.56
2022-10-11T03:42:13.854Z,76.80
2022-10-11T03:44:42.112Z,76.67
2022-10-11T03:47:09.442Z,76.94
2022-10-11T03:49:41.229Z,75.31
2022-10-11T03:52:10.497Z,74.76
2022-10-11T03:54:37.252Z,76.14
2022-10-11T03:57:04.132Z,75.54
2022-10-11T03:59:31.058Z,74.80
2022-10-11T04:01:57.904Z,74.96
2022-10-11T04:04:24.815Z,75.61
2022-10-11T04:06:51.617Z,77.02
2022-10-11T04:09:18.325Z,76.85
2022-10-11T04:11:45.160Z,76.76
2022-10-11T04:14:11.903Z,76.03
2022-10-11T04:16:41.429Z,76.56
2022-10-11T04:19:08.275Z,76.88
2022-10-11T04:21:35.060Z,75.70
2022-10-11T04:24:01.858Z,75.30
2022-10-11T04:26:28.651Z,75.59
2022-10-11T04:28:55.534Z,75.99
2022-10-11T04:31:22.537Z,76.05
2022-10-11T04:33:49.488Z,74.61
2022-10-11T04:36:16.305Z,75.50
2022-10-11T04:38:43.171Z,75.75
2022-10-11T04:41:11.902Z,75.41
2022-10-11T04:43:38.782Z,75.76
2022-10-11T04:46:06.817Z,76.17
2022-10-11T04:48:34.052Z,75.73
2022-10-11T04:51:00.816Z,75.77
2022-10-11T04:53:27.811Z,75.49
2022-10-11T04:56:05.711Z,77.20
2022-10-11T04:58:34.110Z,77.38
2022-10-11T05:01:00.994Z,76.74
2022-10-11T05:03:28.345Z,77.53
2022-10-11T05:05:55.026Z,77.20
2022-10-11T05:08:23.315Z,77.24
2022-10-11T05:11:02.015Z,75.83
2022-10-11T05:13:29.166Z,77.04
2022-10-11T05:15:56.479Z,77.24
2022-10-11T05:18:23.278Z,77.19
2022-10-11T05:20:50.561Z,76.17
2022-10-11T05:23:17.278Z,77.21
2022-10-11T05:25:44.028Z,76.95
2022-10-11T05:28:10.829Z,78.50
2022-10-11T05:30:37.567Z,78.23
2022-10-11T05:33:04.702Z,78.58
2022-10-11T05:35:31.428Z,77.53
2022-10-11T05:37:58.144Z,77.98
2022-10-11T05:40:24.843Z,77.96
2022-10-11T05:42:51.620Z,78.58
2022-10-11T05:45:18.567Z,77.73
2022-10-11T05:47:45.404Z,78.39
2022-10-11T05:50:12.184Z,78.73
2022-10-11T05:52:38.936Z,78.06
2022-10-11T05:55:06.506Z,79.20
2022-10-11T05:57:33.231Z,79.69
2022-10-11T06:00:00.274Z,80.55
2022-10-11T06:02:27.040Z,80.00
2022-10-11T06:04:53.782Z,79.53
2022-10-11T06:07:20.566Z,80.23
2022-10-11T06:09:47.280Z,80.18
2022-10-11T06:12:14.099Z,79.76
2022-10-11T06:14:40.912Z,79.79
2022-10-11T06:17:07.604Z,80.17
2022-10-11T06:19:34.751Z,79.38
2022-10-11T06:22:01.518Z,78.00
2022-10-11T06:24:28.286Z,77.48
2022-10-11T06:26:55.678Z,78.24
2022-10-11T06:29:22.758Z,76.44
2022-10-11T06:31:49.469Z,77.56
2022-10-11T06:34:16.210Z,77.19
2022-10-11T06:36:42.988Z,77.39
2022-10-11T06:39:09.765Z,78.81
2022-10-11T06:41:37.370Z,77.81
2022-10-11T06:44:04.746Z,77.73
2022-10-11T06:46:35.138Z,77.94
2022-10-11T06:49:02.002Z,79.05
2022-10-11T06:51:30.197Z,78.85
2022-10-11T06:53:58.711Z,78.19
2022-10-11T06:56:27.038Z,78.84
2022-10-11T06:58:54.717Z,79.13
2022-10-11T07:01:23.798Z,79.72
2022-10-11T07:03:52.574Z,78.13
2022-10-11T07:06:22.100Z,79.15
2022-10-11T07:08:49.287Z,79.11
2022-10-11T07:11:21.709Z,79.62
2022-10-11T07:13:51.172Z,79.72
2022-10-11T07:16:19.777Z,77.83
2022-10-11T07:18:47.675Z,77.23
2022-10-11T07:21:15.962Z,77.45
2022-10-11T07:23:42.893Z,78.16
2022-10-11T07:26:11.780Z,79.13
2022-10-11T07:28:40.141Z,80.77
2022-10-11T07:31:09.568Z,80.70
2022-10-11T07:33:36.541Z,80.63
2022-10-11T07:36:04.642Z,80.84
2022-10-11T07:38:32.181Z,80.71
2022-10-11T07:40:59.248Z,79.40
2022-10-11T07:43:26.046Z,80.47
2022-10-11T07:45:57.057Z,80.43
2022-10-11T07:48:23.945Z,80.79
2022-10-11T07:50:50.761Z,80.54
2022-10-11T07:53:17.527Z,78.32
2022-10-11T07:55:44.251Z,78.66
2022-10-11T07:58:12.355Z,78.19
2022-10-11T08:00:42.323Z,78.82
2022-10-11T08:03:10.539Z,79.08
2022-10-11T08:05:39.081Z,77.93
2022-10-11T08:08:06.079Z,77.52
2022-10-11T08:10:39.863Z,78.49
2022-10-11T08:13:06.922Z,77.91
2022-10-11T08:15:33.610Z,78.12
2022-10-11T08:18:00.453Z,76.37
2022-10-11T08:20:27.336Z,77.79
2022-10-11T08:22:54.092Z,76.90
2022-10-11T08:25:20.882Z,77.52
2022-10-11T08:27:47.738Z,78.36
2022-10-11T08:30:14.562Z,79.11
2022-10-11T08:32:41.471Z,79.01
2022-10-11T08:35:08.460Z,77.95
2022-10-11T08:37:35.221Z,78.30
2022-10-11T08:40:03.453Z,77.87
2022-10-11T08:42:45.993Z,78.26
2022-10-11T08:45:29.430Z,77.68
2022-10-11T08:48:04.552Z,76.92
2022-10-11T08:50:31.565Z,76.72
2022-10-11T08:53:06.272Z,76.59
2022-10-11T08:55:49.304Z,76.39
2022-10-11T08:58:19.872Z,78.09
2022-10-11T09:00:48.910Z,77.67
2022-10-11T09:03:22.210Z,78.13
2022-10-11T09:05:53.781Z,77.89
2022-10-11T09:08:50.666Z,76.51
2022-10-11T09:11:39.179Z,76.21
2022-10-11T09:14:24.292Z,77.06
2022-10-11T09:17:33.879Z,75.95
2022-10-11T09:20:15.538Z,77.66
2022-10-11T09:23:04.362Z,76.76
2022-10-11T09:25:35.352Z,76.04
2022-10-11T09:28:08.273Z,75.97
2022-10-11T09:30:38.448Z,75.62
2022-10-11T09:33:12.525Z,74.82
2022-10-11T09:35:43.222Z,74.41
2022-10-11T09:38:25.514Z,74.94
2022-10-11T09:40:55.286Z,73.92
2022-10-11T09:43:22.252Z,74.99
2022-10-11T09:45:49.762Z,73.01
2022-10-11T09:48:41.667Z,73.76
2022-10-11T09:51:15.136Z,73.38
2022-10-11T09:54:01.640Z,74.21
2022-10-11T09:56:31.184Z,72.92
2022-10-11T09:59:09.285Z,72.45
2022-10-11T10:01:36.373Z,72.58
2022-10-11T10:04:12.500Z,72.10
2022-10-11T10:06:40.366Z,71.33
2022-10-11T10:09:28.061Z,71.77
2022-10-11T10:11:56.310Z,72.73
2022-10-11T10:14:28.730Z,73.82
2022-10-11T10:17:19.038Z,73.82
2022-10-11T10:19:53.716Z,73.01
2022-10-11T10:22:22.539Z,73.08
2022-10-11T10:24:50.713Z,73.64
2022-10-11T10:27:21.716Z,73.49
2022-10-11T10:30:24.888Z,73.05
2022-10-11T10:33:11.707Z,74.79
2022-10-11T10:35:43.310Z,75.69
2022-10-11T10:38:16.433Z,74.20
2022-10-11T10:40:45.736Z,74.75
2022-10-11T10:43:18.431Z,74.36
2022-10-11T10:46:04.097Z,74.04
2022-10-11T10:52:17.246Z,75.15
2022-10-11T10:54:56.334Z,72.86
2022-10-11T10:57:49.141Z,72.79
2022-10-11T11:00:19.151Z,72.40
2022-10-11T11:02:59.061Z,72.47
2022-10-11T11:05:44.563Z,71.67
2022-10-11T11:08:29.411Z,72.42
2022-10-11T11:11:03.256Z,71.22
2022-10-11T11:13:50.114Z,71.83
2022-10-11T11:16:31.912Z,72.19
2022-10-11T11:19:08.231Z,70.60
2022-10-11T11:21:48.819Z,70.10
2022-10-11T11:24:24.593Z,70.42
2022-10-11T11:27:04.418Z,70.32
2022-10-11T11:29:56.353Z,69.81
2022-10-11T11:32:28.933Z,69.49
2022-10-11T11:35:11.192Z,68.11
2022-10-11T11:37:41.674Z,68.09
2022-10-11T11:40:25.652Z,68.60
2022-10-11T11:42:55.892Z,68.52
2022-10-11T11:45:55.041Z,68.64
2022-10-11T11:48:26.484Z,68.22
2022-10-11T11:51:04.340Z,69.66
2022-10-11T11:54:06.154Z,68.70
2022-10-11T11:56:45.125Z,70.77
2022-10-11T11:59:20.677Z,70.52
2022-10-11T12:01:50.602Z,70.25
2022-10-11T12:04:29.041Z,70.85
2022-10-11T12:07:16.829Z,70.88
2022-10-11T12:09:50.739Z,72.06
2022-10-11T12:12:34.059Z,71.75
2022-10-11T12:15:10.112Z,72.22
2022-10-11T12:18:15.557Z,72.32
2022-10-11T12:20:43.569Z,71.54
2022-10-11T12:23:29.564Z,71.58
2022-10-11T12:26:29.897Z,72.50
2022-10-11T12:29:17.191Z,71.69
2022-10-11T12:31:50.032Z,71.41
2022-10-11T12:37:18.147Z,70.21
2022-10-11T12:39:56.018Z,71.36
2022-10-11T12:42:31.020Z,70.54
2022-10-11T12:45:13.269Z,70.78
2022-10-11T12:48:01.528Z,70.62
2022-10-11T12:50:34.749Z,71.11
2022-10-11T12:53:10.262Z,70.59
2022-10-11T12:55:57.286Z,70.41
2022-10-11T12:58:25.244Z,69.91
2022-10-11T13:00:51.990Z,70.33
2022-10-11T13:03:33.468Z,68.80
2022-10-11T13:06:01.838Z,69.43
2022-10-11T13:08:35.247Z,71.07
2022-10-11T13:11:05.165Z,70.60
2022-10-11T13:13:35.222Z,70.82
2022-10-11T13:16:13.096Z,70.84
2022-10-11T13:18:54.346Z,70.56
2022-10-11T13:21:36.359Z,70.66
2022-10-11T13:24:10.759Z,70.42
2022-10-11T13:26:37.809Z,70.37
2022-10-11T13:29:15.271Z,70.59
2022-10-11T13:31:42.421Z,71.46
2022-10-11T13:34:11.257Z,70.28
2022-10-11T13:36:38.127Z,70.41
2022-10-11T13:39:05.109Z,70.14
2022-10-11T13:41:32.570Z,69.65
2022-10-11T13:43:59.955Z,70.56
2022-10-11T13:46:28.410Z,69.58
2022-10-11T13:49:06.884Z,70.45
2022-10-11T13:51:37.737Z,70.33
2022-10-11T13:54:05.700Z,70.32
2022-10-11T13:56:35.827Z,69.92
2022-10-11T13:59:02.844Z,69.64
2022-10-11T14:01:41.395Z,70.11
2022-10-11T14:04:11.245Z,69.66
2022-10-11T14:06:44.968Z,70.04
2022-10-11T14:09:43.150Z,69.97
2022-10-11T14:12:44.445Z,69.21
2022-10-11T14:15:28.599Z,68.35
2022-10-11T14:17:55.440Z,68.36
2022-10-11T14:20:34.804Z,67.71
2022-10-11T14:23:01.648Z,66.24
2022-10-11T14:25:28.393Z,65.59
2022-10-11T14:27:55.436Z,64.65
2022-10-11T14:30:27.412Z,63.86
2022-10-11T14:32:55.556Z,61.68
2022-10-11T14:35:30.164Z,62.36
2022-10-11T14:37:56.990Z,62.79
2022-10-11T14:40:29.939Z,64.20
2022-10-11T14:42:57.033Z,62.58
2022-10-11T14:45:23.951Z,63.31
2022-10-11T14:47:51.061Z,63.06
2022-10-11T14:50:33.127Z,63.93
2022-10-11T14:53:00.117Z,64.94
2022-10-11T14:55:27.041Z,63.82
2022-10-11T14:57:53.820Z,64.08
2022-10-11T15:00:23.375Z,63.52
2022-10-11T15:02:52.719Z,64.09
2022-10-11T15:05:20.777Z,65.03
2022-10-11T15:07:47.750Z,64.94
2022-10-11T15:10:17.581Z,65.25
2022-10-11T15:12:44.644Z,65.61
2022-10-11T15:15:16.768Z,65.34
2022-10-11T15:17:43.701Z,64.76
2022-10-11T15:20:27.421Z,65.20
2022-10-11T15:22:55.430Z,64.97
2022-10-11T15:25:23.392Z,64.54
2022-10-11T15:27:51.133Z,63.84
2022-10-11T15:30:23.603Z,63.39
2022-10-11T15:32:51.891Z,64.04
2022-10-11T15:35:19.825Z,65.12
2022-10-11T15:37:47.218Z,64.77
2022-10-11T15:40:19.958Z,65.39
2022-10-11T15:42:47.434Z,64.88
2022-10-11T15:45:14.579Z,65.93
2022-10-11T15:47:41.474Z,66.16
2022-10-11T15:50:33.731Z,65.99
2022-10-11T15:53:02.863Z,65.99
2022-10-11T15:55:30.362Z,66.85
2022-10-11T15:57:57.396Z,66.99
2022-10-11T16:00:25.108Z,67.51
2022-10-11T16:02:52.767Z,67.89
2022-10-11T16:05:26.979Z,67.95
2022-10-11T16:07:54.313Z,68.27
2022-10-11T16:10:21.744Z,68.54
2022-10-11T16:12:48.827Z,68.95
2022-10-11T16:15:15.944Z,69.18
2022-10-11T16:17:42.741Z,68.92
2022-10-11T16:20:09.812Z,69.88
2022-10-11T16:22:36.782Z,70.17
2022-10-11T16:25:04.523Z,69.78
2022-10-11T16:27:31.486Z,69.67
2022-10-11T16:29:58.613Z,70.76
2022-10-11T16:32:25.535Z,70.28
2022-10-11T16:34:52.338Z,70.36
2022-10-11T16:37:19.292Z,70.67
2022-10-11T16:39:46.670Z,70.62
2022-10-11T16:42:13.450Z,70.08
2022-10-11T16:44:40.270Z,72.48
2022-10-11T16:47:07.340Z,71.03
2022-10-11T16:49:34.700Z,71.64
2022-10-11T16:52:03.890Z,71.46
2022-10-11T16:54:31.638Z,71.19
2022-10-11T16:56:59.028Z,72.78
2022-10-11T16:59:27.364Z,71.35
2022-10-11T17:01:54.373Z,71.68
2022-10-11T17:04:21.739Z,71.77
2022-10-11T17:06:48.614Z,72.80
2022-10-11T17:09:16.028Z,72.29
2022-10-11T17:11:43.635Z,73.09
2022-10-11T17:14:12.321Z,73.34
2022-10-11T17:16:39.438Z,73.05
2022-10-11T17:19:12.973Z,73.21
2022-10-11T17:21:40.022Z,73.13
2022-10-11T17:24:07.249Z,73.54
2022-10-11T17:26:34.738Z,73.45
2022-10-11T17:29:02.240Z,73.75
2022-10-11T17:31:30.105Z,74.07
2022-10-11T17:34:00.682Z,74.00
2022-10-11T17:36:30.647Z,74.54
2022-10-11T17:38:58.090Z,74.28
2022-10-11T17:41:29.462Z,74.82
2022-10-11T17:43:59.308Z,75.62
2022-10-11T17:46:28.120Z,74.42
2022-10-11T17:48:55.697Z,74.88
2022-10-11T17:51:23.012Z,74.65
2022-10-11T17:53:51.266Z,75.25
2022-10-11T17:56:25.421Z,75.21
2022-10-11T17:58:56.320Z,75.12
2022-10-11T18:01:26.339Z,75.17
2022-10-11T18:03:55.324Z,74.72
2022-10-11T18:06:22.530Z,74.97
2022-10-11T18:08:49.475Z,75.91
2022-10-11T18:11:18.538Z,75.77
2022-10-11T18:13:48.667Z,74.68
2022-10-11T18:16:17.129Z,74.96
2022-10-11T18:18:44.471Z,75.13
2022-10-11T18:21:11.780Z,76.09
2022-10-11T18:23:38.656Z,75.38
2022-10-11T18:26:13.420Z,75.63
2022-10-11T18:28:41.123Z,75.91
2022-10-11T18:34:15.920Z,75.96
2022-10-11T18:36:42.939Z,75.66
2022-10-11T18:39:13.464Z,76.04
2022-10-11T18:41:44.249Z,76.08
2022-10-11T18:44:14.131Z,76.19
2022-10-11T18:46:41.535Z,75.78
2022-10-11T18:49:08.704Z,76.53
2022-10-11T18:51:40.472Z,77.12
2022-10-11T18:54:08.476Z,77.11
2022-10-11T18:56:37.062Z,77.39
2022-10-11T18:59:04.692Z,76.18
2022-10-11T19:01:38.336Z,77.75
2022-10-11T19:04:06.955Z,77.56
2022-10-11T19:06:37.305Z,77.07
2022-10-11T19:09:12.177Z,77.90
2022-10-11T19:11:39.257Z,77.13
2022-10-11T19:14:11.694Z,77.38
2022-10-11T19:16:49.527Z,78.46
2022-10-11T19:19:18.699Z,76.65
2022-10-11T19:21:48.109Z,78.06
2022-10-11T19:24:20.428Z,77.65
2022-10-11T19:26:47.542Z,78.07
2022-10-11T19:29:21.534Z,77.41
2022-10-11T19:31:59.797Z,77.89
2022-10-11T19:34:27.829Z,78.64
2022-10-11T19:36:56.523Z,78.54
2022-10-11T19:39:24.594Z,78.25
2022-10-11T19:41:51.515Z,78.20
2022-10-11T19:44:18.548Z,78.01
2022-10-11T19:46:51.659Z,77.12
2022-10-11T19:49:21.597Z,77.38
2022-10-11T19:51:48.498Z,77.85
2022-10-11T19:54:15.668Z,77.74
2022-10-11T19:56:42.931Z,78.28
2022-10-11T19:59:10.537Z,77.38
2022-10-11T20:01:37.588Z,77.58
2022-10-11T20:04:22.686Z,78.49
2022-10-11T20:06:56.965Z,78.70
2022-10-11T20:09:29.646Z,79.08
2022-10-11T20:11:57.323Z,79.08
2022-10-11T20:14:24.470Z,78.05
2022-10-11T20:16:51.432Z,78.77
2022-10-11T20:19:18.745Z,79.21
2022-10-11T20:21:45.611Z,78.84
2022-10-11T20:24:12.691Z,79.16
2022-10-11T20:26:39.603Z,79.45
2022-10-11T20:29:06.554Z,79.39
2022-10-11T20:31:34.610Z,79.21
2022-10-11T20:34:04.266Z,79.60
2022-10-11T20:36:31.502Z,79.18
2022-10-11T20:38:59.270Z,79.76
2022-10-11T20:41:34.194Z,79.68
2022-10-11T20:44:01.840Z,79.05
2022-10-11T20:46:31.369Z,79.74
2022-10-11T20:49:03.540Z,79.41
2022-10-11T20:51:31.776Z,80.21
2022-10-11T20:53:59.340Z,80.77
2022-10-11T20:56:26.773Z,80.47
2022-10-11T20:58:54.920Z,79.69
2022-10-11T21:01:24.271Z,79.94
2022-10-11T21:03:51.098Z,80.42
2022-10-11T21:06:19.249Z,81.45
2022-10-11T21:08:46.095Z,81.02
2022-10-11T21:11:12.897Z,81.85
2022-10-11T21:13:39.596Z,81.47
2022-10-11T21:16:14.641Z,80.29
2022-10-11T21:18:41.823Z,81.79
2022-10-11T21:21:10.921Z,80.87
2022-10-11T21:23:38.227Z,80.23
2022-10-11T21:26:07.252Z,80.96
2022-10-11T21:28:34.422Z,81.75
2022-10-11T21:31:12.563Z,81.32
2022-10-11T21:33:40.862Z,81.90
2022-10-11T21:36:21.545Z,82.67
2022-10-11T21:38:49.909Z,82.57
2022-10-11T21:41:25.556Z,84.11
2022-10-11T21:43:53.148Z,82.49
2022-10-11T21:46:19.810Z,82.67
2022-10-11T21:48:47.292Z,82.43
2022-10-11T21:51:16.252Z,82.89
2022-10-11T21:53:42.998Z,83.38
2022-10-11T21:56:09.801Z,82.56
2022-10-11T21:58:36.923Z,83.69
2022-10-11T22:01:04.730Z,83.21
2022-10-11T22:03:32.237Z,83.26
2022-10-11T22:06:02.829Z,82.88
2022-10-11T22:08:30.586Z,83.99
2022-10-11T22:11:00.315Z,82.87
2022-10-11T22:13:29.659Z,82.99
2022-10-11T22:15:57.176Z,82.91
2022-10-11T22:18:25.228Z,82.77
2022-10-11T22:20:52.482Z,82.44
2022-10-11T22:23:19.315Z,83.47
2022-10-11T22:25:46.416Z,84.57
2022-10-11T22:28:13.425Z,83.86
2022-10-11T22:30:40.337Z,83.15
2022-10-11T22:33:07.143Z,83.07
2022-10-11T22:35:37.547Z,83.71
2022-10-11T22:38:06.196Z,83.69
2022-10-11T22:40:33.118Z,83.37
2022-10-11T22:42:59.844Z,83.32
2022-10-11T22:45:26.596Z,83.63
2022-10-11T22:47:53.316Z,83.76
2022-10-11T22:50:20.045Z,83.32
2022-10-11T22:52:46.775Z,82.95
2022-10-11T22:55:18.973Z,83.35
2022-10-11T22:57:46.792Z,83.30
2022-10-11T23:00:13.852Z,82.65
2022-10-11T23:02:42.296Z,82.94
2022-10-11T23:05:09.036Z,82.65
2022-10-11T23:07:36.095Z,82.38
2022-10-11T23:10:03.862Z,82.36
2022-10-11T23:12:30.782Z,82.86
2022-10-11T23:14:57.987Z,81.74
2022-10-11T23:17:24.900Z,81.94
2022-10-11T23:19:52.760Z,81.70
2022-10-11T23:22:19.545Z,81.78
2022-10-11T23:24:46.291Z,81.53
2022-10-11T23:27:13.074Z,82.66
2022-10-11T23:29:41.050Z,81.39
2022-10-11T23:32:08.856Z,80.97
2022-10-11T23:34:35.892Z,81.28
2022-10-11T23:37:03.093Z,81.14
2022-10-11T23:39:29.898Z,81.72
2022-10-11T23:41:57.192Z,81.65
2022-10-11T23:44:24.004Z,80.90
2022-10-11T23:46:50.813Z,81.34
2022-10-11T23:49:17.505Z,81.64
2022-10-11T23:51:44.289Z,81.20
2022-10-11T23:54:11.069Z,80.64
2022-10-11T23:56:38.157Z,80.97
2022-10-11T23:59:04.873Z,80.44
